createdAt,value
2018-01-16T00:00:07.594Z,97.90
2018-01-16T00:02:39.305Z,98.00
2018-01-16T00:05:10.071Z,98.00
2018-01-16T00:07:41.755Z,98.10
2018-01-16T00:10:12.502Z,98.30
2018-01-16T00:12:44.092Z,98.20
2018-01-16T00:15:15.879Z,98.20
2018-01-16T00:17:46.668Z,98.20
2018-01-16T00:20:17.386Z,98.30
2018-01-16T00:22:48.207Z,98.50
2018-01-16T00:25:18.971Z,98.60
2018-01-16T00:27:50.215Z,98.90
2018-01-16T00:30:20.993Z,99.20
2018-01-16T00:32:51.736Z,99.00
2018-01-16T00:35:22.616Z,99.20
2018-01-16T00:37:53.726Z,99.30
2018-01-16T00:40:24.482Z,99.40
2018-01-16T00:42:55.203Z,99.30
2018-01-16T00:45:26.262Z,99.20
2018-01-16T00:47:57.839Z,99.30
2018-01-16T00:50:29.366Z,99.40
2018-01-16T00:53:00.163Z,99.40
2018-01-16T00:55:30.944Z,99.40
2018-01-16T00:58:01.971Z,99.20
2018-01-16T01:00:32.683Z,99.10
2018-01-16T01:03:04.510Z,99.20
2018-01-16T01:05:35.530Z,99.20
2018-01-16T01:08:06.262Z,99.20
2018-01-16T01:10:37.007Z,99.10
2018-01-16T01:13:07.776Z,99.20
2018-01-16T01:15:38.539Z,99.20
2018-01-16T01:18:10.316Z,99.30
2018-01-16T01:20:41.110Z,99.30
2018-01-16T01:23:11.827Z,99.10
2018-01-16T01:25:42.611Z,99.00
2018-01-16T01:28:14.139Z,99.20
2018-01-16T01:30:44.850Z,99.20
2018-01-16T01:33:15.592Z,99.40
2018-01-16T01:35:46.694Z,99.60
2018-01-16T01:38:17.475Z,99.50
2018-01-16T01:40:48.200Z,99.50
2018-01-16T01:43:18.923Z,99.50
2018-01-16T01:46:52.087Z,99.40
2018-01-16T01:49:22.828Z,99.50
2018-01-16T01:51:53.599Z,99.50
2018-01-16T01:54:24.622Z,99.40
2018-01-16T01:56:55.406Z,99.40
2018-01-16T01:59:27.489Z,99.30
2018-01-16T02:01:58.538Z,99.30
2018-01-16T02:04:29.347Z,99.20
2018-01-16T02:07:00.169Z,99.00
2018-01-16T02:09:30.901Z,99.10
2018-01-16T02:12:01.678Z,99.20
2018-01-16T02:14:32.725Z,99.10
2018-01-16T02:17:03.460Z,98.90
2018-01-16T02:19:34.245Z,98.60
2018-01-16T02:22:05.355Z,98.50
2018-01-16T02:24:37.006Z,98.30
2018-01-16T02:27:08.145Z,98.30
2018-01-16T02:29:40.553Z,97.90
2018-01-16T02:32:12.334Z,96.90
2018-01-16T02:34:44.615Z,97.00
2018-01-16T02:37:15.394Z,97.00
2018-01-16T02:39:46.156Z,97.00
2018-01-16T02:42:17.920Z,96.20
2018-01-16T02:44:49.287Z,96.20
2018-01-16T02:47:20.187Z,96.30
2018-01-16T02:49:51.087Z,96.70
2018-01-16T02:52:21.863Z,96.90
2018-01-16T02:54:53.943Z,97.30
2018-01-16T02:57:25.062Z,97.30
2018-01-16T02:59:56.574Z,97.50
2018-01-16T03:02:27.306Z,97.50
2018-01-16T03:04:58.145Z,97.50
2018-01-16T03:07:28.899Z,97.60
2018-01-16T03:09:59.624Z,97.80
2018-01-16T03:12:30.646Z,97.80
2018-01-16T03:15:01.804Z,97.90
2018-01-16T03:17:32.665Z,97.80
2018-01-16T03:20:04.542Z,97.30
2018-01-16T03:22:35.293Z,97.30
2018-01-16T03:25:06.047Z,97.40
2018-01-16T03:27:36.803Z,97.50
2018-01-16T03:30:07.540Z,97.40
2018-01-16T03:32:39.402Z,97.30
2018-01-16T03:35:10.167Z,97.60
2018-01-16T03:37:41.934Z,97.60
2018-01-16T03:40:12.912Z,97.60
2018-01-16T03:42:43.597Z,97.40
2018-01-16T03:45:14.359Z,97.40
2018-01-16T03:47:45.837Z,97.70
2018-01-16T03:50:16.579Z,97.70
2018-01-16T03:52:47.653Z,97.70
2018-01-16T03:55:19.269Z,97.60
2018-01-16T03:57:50.031Z,97.60
2018-01-16T04:00:23.300Z,97.40
2018-01-16T04:02:54.070Z,97.40
2018-01-16T04:05:24.897Z,97.50
2018-01-16T04:07:56.402Z,96.90
2018-01-16T04:10:28.206Z,96.60
2018-01-16T04:12:59.759Z,96.80
2018-01-16T04:15:31.242Z,96.60
2018-01-16T04:18:01.985Z,96.60
2018-01-16T04:20:32.785Z,96.40
2018-01-16T04:23:03.893Z,96.40
2018-01-16T04:25:34.609Z,96.70
2018-01-16T04:28:06.098Z,96.80
2018-01-16T04:30:37.081Z,96.80
2018-01-16T04:33:07.914Z,96.80
2018-01-16T04:35:38.636Z,96.90
2018-01-16T04:38:09.349Z,96.90
2018-01-16T04:40:40.146Z,96.80
2018-01-16T04:43:10.906Z,96.80
2018-01-16T04:45:42.945Z,96.90
2018-01-16T04:48:13.629Z,96.90
2018-01-16T04:50:44.352Z,96.90
2018-01-16T04:53:15.377Z,97.00
2018-01-16T04:55:46.890Z,97.20
2018-01-16T04:58:17.682Z,97.20
2018-01-16T05:00:48.410Z,97.20
2018-01-16T05:03:19.189Z,97.20
2018-01-16T05:05:49.897Z,97.20
2018-01-16T05:08:20.813Z,97.40
2018-01-16T05:10:51.786Z,97.00
2018-01-16T05:13:22.557Z,97.30
2018-01-16T05:15:54.031Z,96.80
2018-01-16T05:18:24.736Z,96.80
2018-01-16T05:20:55.467Z,97.00
2018-01-16T05:23:27.310Z,96.90
2018-01-16T05:25:58.018Z,96.80
2018-01-16T05:28:28.770Z,96.90
2018-01-16T05:30:59.579Z,96.90
2018-01-16T05:33:30.318Z,96.90
2018-01-16T05:36:01.238Z,96.80
2018-01-16T05:38:32.567Z,97.20
2018-01-16T05:41:03.994Z,96.70
2018-01-16T05:43:35.542Z,96.80
2018-01-16T05:46:07.218Z,96.80
2018-01-16T05:48:38.146Z,96.80
2018-01-16T05:51:09.900Z,96.50
2018-01-16T05:53:41.514Z,96.50
2018-01-16T05:56:12.541Z,96.70
2018-01-16T05:58:43.276Z,96.50
2018-01-16T06:01:14.334Z,96.30
2018-01-16T06:03:45.034Z,96.50
2018-01-16T06:06:15.758Z,96.30
2018-01-16T06:08:46.549Z,96.30
2018-01-16T06:11:18.532Z,96.50
2018-01-16T06:13:50.032Z,96.50
2018-01-16T06:16:20.802Z,96.50
2018-01-16T06:18:52.294Z,96.90
2018-01-16T06:21:23.020Z,96.90
2018-01-16T06:23:54.196Z,96.80
2018-01-16T06:26:24.979Z,97.00
2018-01-16T06:29:04.864Z,97.00
2018-01-16T06:31:36.133Z,97.00
2018-01-16T06:34:08.504Z,97.30
2018-01-16T06:36:44.894Z,97.30
2018-01-16T06:39:21.284Z,97.30
2018-01-16T06:41:53.386Z,97.30
2018-01-16T06:44:24.316Z,97.30
2018-01-16T06:46:55.142Z,97.70
2018-01-16T06:49:25.822Z,97.70
2018-01-16T06:51:58.779Z,97.00
2018-01-16T06:54:30.634Z,97.00
2018-01-16T06:57:12.308Z,97.20
2018-01-16T06:59:51.981Z,97.90
2018-01-16T07:02:24.357Z,97.50
2018-01-16T07:04:55.056Z,97.50
2018-01-16T07:07:25.806Z,97.70
2018-01-16T07:09:59.769Z,97.90
2018-01-16T07:12:34.362Z,98.00
2018-01-16T07:15:05.680Z,97.90
2018-01-16T07:17:37.991Z,98.20
2018-01-16T07:20:09.331Z,98.30
2018-01-16T07:22:41.014Z,98.40
2018-01-16T07:25:11.812Z,98.40
2018-01-16T07:27:47.421Z,98.20
2018-01-16T07:30:19.422Z,98.00
2018-01-16T07:32:51.066Z,98.00
2018-01-16T07:35:22.786Z,98.20
2018-01-16T07:37:58.336Z,98.20
2018-01-16T07:40:32.544Z,98.00
2018-01-16T07:43:17.233Z,97.80
2018-01-16T07:45:51.384Z,97.80
2018-01-16T07:48:23.554Z,97.90
2018-01-16T07:50:55.522Z,98.10
2018-01-16T07:53:27.550Z,98.20
2018-01-16T07:55:58.765Z,98.20
2018-01-16T07:58:29.700Z,98.30
2018-01-16T08:01:00.869Z,98.30
2018-01-16T08:03:32.607Z,98.30
2018-01-16T08:06:03.325Z,98.30
2018-01-16T08:08:35.458Z,98.60
2018-01-16T08:11:07.308Z,98.50
2018-01-16T08:14:26.286Z,98.10
2018-01-16T08:16:59.824Z,97.80
2018-01-16T08:19:32.305Z,97.80
2018-01-16T08:22:04.058Z,97.90
2018-01-16T08:24:37.912Z,97.90
2018-01-16T08:27:11.109Z,97.90
2018-01-16T08:29:42.622Z,97.90
2018-01-16T08:32:13.518Z,97.90
2018-01-16T08:34:44.846Z,97.60
2018-01-16T08:37:17.686Z,97.40
2018-01-16T08:39:50.129Z,97.10
2018-01-16T08:43:03.338Z,97.00
2018-01-16T08:45:38.757Z,96.80
2018-01-16T08:48:11.063Z,97.00
2018-01-16T08:50:42.339Z,97.20
2018-01-16T08:53:13.201Z,97.00
2018-01-16T08:55:51.170Z,96.80
2018-01-16T08:58:26.523Z,96.90
2018-01-16T09:00:59.438Z,96.90
2018-01-16T09:03:32.199Z,96.80
2018-01-16T09:06:03.998Z,96.80
2018-01-16T09:08:35.905Z,96.80
2018-01-16T09:11:07.383Z,97.10
2018-01-16T09:13:38.170Z,97.00
2018-01-16T09:16:08.942Z,97.10
2018-01-16T09:18:40.475Z,97.30
2018-01-16T09:21:12.126Z,97.10
2018-01-16T09:23:42.815Z,97.00
2018-01-16T09:26:13.599Z,97.20
2018-01-16T09:28:44.573Z,97.10
2018-01-16T09:31:15.326Z,96.80
2018-01-16T09:33:46.425Z,96.70
2018-01-16T09:36:18.059Z,96.30
2018-01-16T09:38:48.807Z,96.30
2018-01-16T09:41:20.451Z,96.70
2018-01-16T09:43:51.348Z,96.70
2018-01-16T09:46:22.101Z,96.70
2018-01-16T09:48:53.397Z,96.60
2018-01-16T09:51:24.307Z,96.70
2018-01-16T09:53:55.232Z,96.90
2018-01-16T09:56:25.958Z,96.40
2018-01-16T09:58:56.667Z,96.50
2018-01-16T10:01:28.969Z,95.80
2018-01-16T10:04:00.536Z,96.00
2018-01-16T10:06:31.342Z,95.90
2018-01-16T10:09:02.598Z,96.30
2018-01-16T10:11:33.356Z,96.40
2018-01-16T10:14:05.008Z,96.00
2018-01-16T10:16:36.462Z,95.80
2018-01-16T10:19:08.134Z,96.10
2018-01-16T10:21:39.106Z,96.00
2018-01-16T10:24:10.302Z,96.00
2018-01-16T10:26:41.774Z,96.20
2018-01-16T10:29:12.796Z,96.20
2018-01-16T10:31:44.294Z,96.20
2018-01-16T10:34:14.994Z,96.20
2018-01-16T10:36:45.731Z,95.60
2018-01-16T10:39:16.484Z,95.70
2018-01-16T10:41:47.252Z,95.70
2018-01-16T10:44:18.290Z,96.30
2018-01-16T10:46:50.610Z,95.60
2018-01-16T10:49:21.522Z,95.50
2018-01-16T10:51:52.209Z,94.90
2018-01-16T10:54:22.957Z,95.40
2018-01-16T10:56:53.634Z,95.20
2018-01-16T10:59:24.643Z,94.90
2018-01-16T11:01:56.099Z,95.00
2018-01-16T11:04:27.223Z,95.00
2018-01-16T11:06:57.943Z,94.60
2018-01-16T11:09:28.713Z,95.10
2018-01-16T11:11:59.537Z,95.10
2018-01-16T11:14:32.834Z,95.00
2018-01-16T11:17:22.089Z,95.10
2018-01-16T11:19:53.554Z,95.30
2018-01-16T11:22:25.041Z,94.70
2018-01-16T11:24:55.781Z,94.70
2018-01-16T11:27:26.447Z,94.60
2018-01-16T11:29:57.158Z,94.40
2018-01-16T11:32:27.926Z,93.60
2018-01-16T11:34:59.368Z,94.00
2018-01-16T11:37:31.032Z,94.40
2018-01-16T11:40:02.534Z,94.40
2018-01-16T11:42:33.378Z,94.40
2018-01-16T11:45:04.258Z,94.00
2018-01-16T11:47:36.433Z,94.00
2018-01-16T11:50:07.160Z,94.00
2018-01-16T11:52:37.946Z,93.50
2018-01-16T11:55:09.558Z,93.80
2018-01-16T11:57:40.365Z,93.80
2018-01-16T12:00:11.957Z,94.00
2018-01-16T12:02:42.874Z,94.00
2018-01-16T12:05:14.516Z,94.20
2018-01-16T12:07:45.843Z,94.10
2018-01-16T12:10:16.557Z,93.70
2018-01-16T12:12:47.508Z,93.50
2018-01-16T12:15:18.283Z,93.60
2018-01-16T12:17:49.112Z,93.40
2018-01-16T12:20:20.625Z,93.80
2018-01-16T12:22:51.355Z,93.80
2018-01-16T12:25:22.450Z,93.90
2018-01-16T12:27:53.154Z,93.80
2018-01-16T12:30:23.861Z,93.60
2018-01-16T12:32:54.642Z,94.10
2018-01-16T12:35:26.200Z,93.30
2018-01-16T12:37:57.223Z,93.30
2018-01-16T12:40:29.650Z,93.30
2018-01-16T12:43:01.820Z,93.60
2018-01-16T12:45:33.435Z,93.40
2018-01-16T12:48:04.945Z,93.40
2018-01-16T12:50:36.571Z,93.50
2018-01-16T12:53:07.299Z,93.50
2018-01-16T12:55:38.090Z,93.70
2018-01-16T12:58:09.582Z,93.80
2018-01-16T13:00:40.322Z,93.70
2018-01-16T13:03:11.034Z,93.80
2018-01-16T13:05:41.850Z,93.60
2018-01-16T13:08:12.948Z,93.60
2018-01-16T13:10:43.678Z,93.90
2018-01-16T13:13:17.538Z,93.00
2018-01-16T13:15:48.662Z,93.30
2018-01-16T13:18:20.219Z,92.40
2018-01-16T13:20:50.954Z,92.40
2018-01-16T13:23:21.710Z,90.90
2018-01-16T13:25:53.738Z,92.00
2018-01-16T13:28:25.258Z,94.00
2018-01-16T13:30:55.960Z,94.00
2018-01-16T13:33:26.831Z,95.10
2018-01-16T13:35:57.621Z,95.70
2018-01-16T13:38:28.989Z,95.60
2018-01-16T13:40:59.819Z,95.80
2018-01-16T13:43:30.679Z,96.50
2018-01-16T13:46:01.811Z,97.20
2018-01-16T13:48:32.505Z,97.70
2018-01-16T13:51:03.198Z,97.50
2018-01-16T13:53:34.670Z,98.00
2018-01-16T13:56:05.778Z,97.90
2018-01-16T13:58:37.605Z,98.40
2018-01-16T14:01:08.347Z,98.60
2018-01-16T14:03:39.124Z,98.40
2018-01-16T14:06:10.426Z,98.40
2018-01-16T14:08:41.170Z,98.30
2018-01-16T14:11:12.106Z,98.10
2018-01-16T14:13:42.834Z,98.10
2018-01-16T14:16:13.560Z,98.50
2018-01-16T14:18:44.542Z,98.50
2018-01-16T14:21:15.249Z,98.50
2018-01-16T14:23:46.022Z,98.60
2018-01-16T14:26:17.515Z,98.70
2018-01-16T14:28:49.559Z,98.70
2018-01-16T14:31:20.378Z,98.50
2018-01-16T14:33:51.841Z,98.60
2018-01-16T14:36:22.874Z,98.50
2018-01-16T14:38:53.595Z,98.50
2018-01-16T14:41:25.062Z,98.20
2018-01-16T14:43:55.818Z,98.20
2018-01-16T14:46:26.575Z,98.20
2018-01-16T14:48:57.526Z,97.90
2018-01-16T14:51:28.213Z,98.00
2018-01-16T14:53:58.923Z,97.90
2018-01-16T14:56:30.889Z,98.30
2018-01-16T14:59:01.697Z,98.30
2018-01-16T15:01:32.782Z,98.20
2018-01-16T15:04:03.505Z,98.40
2018-01-16T15:06:34.279Z,98.00
2018-01-16T15:09:06.137Z,97.90
2018-01-16T15:11:36.922Z,97.90
2018-01-16T15:14:07.599Z,98.10
2018-01-16T15:16:38.877Z,98.00
2018-01-16T15:19:10.583Z,98.10
2018-01-16T15:21:41.322Z,98.10
2018-01-16T15:24:12.048Z,98.10
2018-01-16T15:26:43.518Z,97.40
2018-01-16T15:29:14.457Z,97.40
2018-01-16T15:31:45.161Z,97.40
2018-01-16T15:34:15.886Z,97.70
2018-01-16T15:36:46.574Z,97.60
2018-01-16T15:39:18.249Z,97.50
2018-01-16T15:41:49.734Z,97.70
2018-01-16T15:44:20.481Z,97.70
2018-01-16T15:46:51.505Z,97.60
2018-01-16T15:49:22.234Z,97.80
2018-01-16T15:51:54.618Z,98.00
2018-01-16T15:54:25.489Z,98.00
2018-01-16T15:56:56.770Z,98.20
2018-01-16T15:59:27.842Z,98.10
2018-01-16T16:01:58.540Z,97.90
2018-01-16T16:04:29.261Z,97.80
2018-01-16T16:07:00.518Z,97.50
2018-01-16T16:09:31.254Z,97.50
2018-01-16T16:12:02.350Z,97.50
2018-01-16T16:14:33.083Z,97.50
2018-01-16T16:17:03.827Z,97.80
2018-01-16T16:19:35.255Z,98.00
2018-01-16T16:22:05.942Z,98.00
2018-01-16T16:24:36.697Z,97.90
2018-01-16T16:27:07.843Z,98.10
2018-01-16T16:29:38.833Z,98.10
2018-01-16T16:32:10.375Z,98.10
2018-01-16T16:34:41.954Z,98.40
2018-01-16T16:37:12.730Z,98.40
2018-01-16T16:39:44.335Z,98.50
2018-01-16T16:42:15.134Z,98.40
2018-01-16T16:44:45.871Z,98.40
2018-01-16T16:47:16.574Z,98.30
2018-01-16T16:49:48.043Z,98.40
2018-01-16T16:52:19.690Z,98.40
2018-01-16T16:54:50.394Z,98.50
2018-01-16T16:57:21.410Z,98.50
2018-01-16T17:00:26.042Z,98.60
2018-01-16T17:03:03.448Z,98.50
2018-01-16T17:05:35.101Z,98.50
2018-01-16T17:08:05.853Z,98.50
2018-01-16T17:10:36.554Z,98.50
2018-01-16T17:13:07.294Z,98.40
2018-01-16T17:15:38.410Z,98.50
2018-01-16T17:18:09.095Z,98.50
2018-01-16T17:20:40.015Z,98.50
2018-01-16T17:23:12.278Z,98.30
2018-01-16T17:25:47.109Z,98.20
2018-01-16T17:28:18.966Z,98.00
2018-01-16T17:30:50.037Z,98.00
2018-01-16T17:33:22.846Z,97.80
2018-01-16T17:35:53.675Z,97.80
2018-01-16T17:38:25.106Z,97.70
2018-01-16T17:40:55.858Z,97.70
2018-01-16T17:43:27.354Z,97.50
2018-01-16T17:45:58.586Z,97.40
2018-01-16T17:48:29.314Z,97.60
2018-01-16T17:51:00.830Z,97.50
2018-01-16T17:53:32.621Z,98.00
2018-01-16T17:56:03.385Z,97.70
2018-01-16T17:58:34.115Z,97.80
2018-01-16T18:01:04.862Z,97.80
2018-01-16T18:03:35.582Z,97.80
2018-01-16T18:06:06.554Z,97.80
2018-01-16T18:08:38.092Z,98.20
2018-01-16T18:11:09.086Z,97.90
2018-01-16T18:13:39.823Z,98.00
2018-01-16T18:16:10.534Z,97.90
2018-01-16T18:18:41.266Z,98.10
2018-01-16T18:21:12.053Z,98.10
2018-01-16T18:23:43.050Z,98.10
2018-01-16T18:26:15.653Z,98.10
2018-01-16T18:28:46.366Z,98.10
2018-01-16T18:31:17.166Z,98.20
2018-01-16T18:33:47.945Z,98.20
2018-01-16T18:36:18.990Z,98.10
2018-01-16T18:38:49.855Z,98.30
2018-01-16T18:41:21.381Z,98.30
2018-01-16T18:43:52.155Z,98.30
2018-01-16T18:46:22.954Z,98.20
2018-01-16T18:48:53.658Z,98.00
2018-01-16T18:51:24.551Z,98.20
2018-01-16T18:53:56.371Z,98.20
2018-01-16T18:56:27.758Z,98.10
2018-01-16T18:58:59.524Z,98.00
2018-01-16T19:01:30.983Z,97.80
2018-01-16T19:04:02.526Z,97.90
2018-01-16T19:06:34.495Z,97.70
2018-01-16T19:09:06.082Z,97.70
2018-01-16T19:11:36.816Z,97.70
2018-01-16T19:14:07.952Z,97.60
2018-01-16T19:16:38.753Z,97.50
2018-01-16T19:19:09.562Z,97.70
2018-01-16T19:21:40.348Z,97.50
2018-01-16T19:24:11.121Z,97.50
2018-01-16T19:26:42.250Z,97.40
2018-01-16T19:29:13.021Z,97.60
2018-01-16T19:31:44.745Z,97.50
2018-01-16T19:34:15.528Z,97.50
2018-01-16T19:36:47.080Z,97.40
2018-01-16T19:39:17.948Z,97.30
2018-01-16T19:41:48.728Z,97.40
2018-01-16T19:44:20.550Z,97.90
2018-01-16T19:46:51.463Z,97.90
2018-01-16T19:49:22.195Z,98.10
2018-01-16T19:51:53.106Z,98.10
2018-01-16T19:54:24.637Z,98.20
2018-01-16T19:56:56.191Z,98.30
2018-01-16T19:59:27.738Z,98.40
2018-01-16T20:01:58.502Z,98.40
2018-01-16T20:04:29.650Z,98.40
2018-01-16T20:07:00.466Z,98.40
2018-01-16T20:09:32.248Z,98.60
2018-01-16T20:12:03.190Z,98.60
2018-01-16T20:14:33.923Z,98.50
2018-01-16T20:17:05.460Z,98.50
2018-01-16T20:19:36.285Z,98.50
2018-01-16T20:22:07.303Z,98.50
2018-01-16T20:24:38.038Z,98.60
2018-01-16T20:27:08.840Z,98.60
2018-01-16T20:29:39.603Z,98.40
2018-01-16T20:32:10.358Z,98.50
2018-01-16T20:34:41.413Z,98.60
2018-01-16T20:37:12.188Z,98.80
2018-01-16T20:39:42.908Z,98.90
2018-01-16T20:42:13.614Z,98.80
2018-01-16T20:44:44.334Z,98.60
2018-01-16T20:47:15.104Z,98.60
2018-01-16T20:49:45.884Z,98.60
2018-01-16T20:52:17.423Z,98.30
2018-01-16T20:54:48.921Z,98.60
2018-01-16T20:57:19.666Z,98.60
2018-01-16T20:59:51.204Z,98.00
2018-01-16T21:02:21.951Z,98.10
2018-01-16T21:04:53.138Z,98.10
2018-01-16T21:07:23.935Z,98.60
2018-01-16T21:09:54.749Z,98.80
2018-01-16T21:12:25.570Z,99.00
2018-01-16T21:14:56.342Z,98.90
2018-01-16T21:17:27.041Z,99.20
2018-01-16T21:19:57.761Z,99.40
2018-01-16T21:22:28.522Z,99.50
2018-01-16T21:24:59.310Z,99.40
2018-01-16T21:27:30.118Z,99.70
2018-01-16T21:30:00.805Z,99.70
2018-01-16T21:32:31.655Z,99.90
2018-01-16T21:35:02.762Z,99.90
2018-01-16T21:37:33.655Z,99.90
2018-01-16T21:40:04.465Z,99.90
2018-01-16T21:42:35.182Z,99.90
2018-01-16T21:45:05.336Z,99.90
2018-01-16T21:47:36.090Z,99.90
2018-01-16T21:50:07.698Z,99.90
2018-01-16T21:52:38.467Z,99.90
2018-01-16T21:55:09.319Z,99.90
2018-01-16T21:57:40.829Z,99.90
2018-01-16T22:00:11.910Z,99.90
2018-01-16T22:02:42.854Z,99.90
2018-01-16T22:05:14.621Z,99.90
2018-01-16T22:07:46.723Z,99.90
2018-01-16T22:10:18.318Z,99.90
2018-01-16T22:12:49.073Z,99.90
2018-01-16T22:15:19.844Z,99.90
2018-01-16T22:17:50.608Z,99.90
2018-01-16T22:20:21.405Z,99.90
2018-01-16T22:22:52.412Z,99.90
2018-01-16T22:25:24.582Z,99.90
2018-01-16T22:27:56.446Z,99.80
2018-01-16T22:30:27.325Z,99.80
2018-01-16T22:33:01.200Z,99.90
2018-01-16T22:35:32.510Z,99.70
2018-01-16T22:38:04.272Z,99.70
2018-01-16T22:40:35.222Z,99.50
2018-01-16T22:43:06.201Z,99.60
2018-01-16T22:45:37.205Z,99.50
2018-01-16T22:48:07.980Z,99.30
2018-01-16T22:50:39.222Z,99.40
2018-01-16T22:53:10.538Z,99.50
2018-01-16T22:55:41.441Z,99.50
2018-01-16T22:58:14.923Z,99.40
2018-01-16T23:00:46.331Z,99.40
2018-01-16T23:03:18.194Z,99.50
2018-01-16T23:05:50.058Z,99.50
2018-01-16T23:08:20.790Z,99.50
2018-01-16T23:10:51.546Z,99.50
2018-01-16T23:13:22.383Z,99.40
2018-01-16T23:15:53.098Z,99.20
2018-01-16T23:18:24.154Z,99.00
2018-01-16T23:20:54.899Z,99.00
2018-01-16T23:23:25.920Z,98.90
2018-01-16T23:25:56.651Z,99.00
2018-01-16T23:28:28.134Z,98.80
2018-01-16T23:31:00.004Z,98.70
2018-01-16T23:33:31.503Z,98.70
2018-01-16T23:36:03.136Z,98.70
2018-01-16T23:38:33.836Z,98.50
2018-01-16T23:41:05.322Z,98.70
2018-01-16T23:43:36.858Z,98.60
2018-01-16T23:46:07.564Z,98.70
2018-01-16T23:48:39.126Z,98.70
2018-01-16T23:51:10.701Z,98.60
2018-01-16T23:53:41.687Z,98.50
2018-01-16T23:56:12.418Z,98.60
2018-01-16T23:58:43.118Z,98.70
